Time;durP1;ratioP1;P1;durP2;ratioP2;P2;SDS_P1;SDS_P2;PMS_P1;PMS_P2;Temp;Humidity;BMP_temperature;BMP_pressure;BME280_temperature;BME280_humidity;BME280_pressure;Samples;Min_cycle;Max_cycle;Signal;HPM_P1;HPM_P2
2022/03/20 00:02:20;;;;;;;9.20;3.80;;;7.90;93.40;;;;;;5031736;28;20522;-87
2022/03/20 00:04:46;;;;;;;10.88;5.28;;;7.80;93.40;;;;;;5031715;28;20034;-87
2022/03/20 00:07:12;;;;;;;9.75;3.90;;;7.80;93.50;;;;;;5031663;28;20038;-87
2022/03/20 00:09:38;;;;;;;11.85;4.40;;;7.80;93.60;;;;;;5031258;28;20073;-87
2022/03/20 00:12:05;;;;;;;12.23;4.78;;;7.90;93.80;;;;;;5031992;28;20068;-88
2022/03/20 00:14:30;;;;;;;11.90;4.57;;;7.80;93.80;;;;;;5031660;28;20041;-87
2022/03/20 00:16:56;;;;;;;12.55;4.07;;;7.80;93.90;;;;;;5031413;28;20056;-87
2022/03/20 00:19:21;;;;;;;10.10;4.28;;;7.80;93.80;;;;;;5031594;28;20144;-87
2022/03/20 00:21:47;;;;;;;10.05;4.72;;;7.80;93.90;;;;;;5031199;28;20084;-87
2022/03/20 00:24:13;;;;;;;11.10;4.35;;;7.70;94.20;;;;;;5031500;28;20414;-87
2022/03/20 00:26:39;;;;;;;9.43;4.10;;;7.70;94.10;;;;;;5031405;28;20029;-87
2022/03/20 00:29:06;;;;;;;9.50;3.92;;;7.70;94.10;;;;;;5032638;28;20111;-87
2022/03/20 00:31:33;;;;;;;14.05;4.72;;;7.70;94.30;;;;;;5030753;28;20083;-87
2022/03/20 00:33:59;;;;;;;12.18;4.28;;;7.60;94.20;;;;;;5030780;28;20045;-87
2022/03/20 00:36:25;;;;;;;11.18;4.78;;;7.60;94.30;;;;;;5031547;28;20044;-87
2022/03/20 00:38:50;;;;;;;10.23;4.28;;;7.60;94.30;;;;;;5014535;28;20091;-87
2022/03/20 00:41:16;;;;;;;12.57;4.93;;;7.60;94.40;;;;;;5030859;28;20596;-87
2022/03/20 00:43:41;;;;;;;10.20;4.72;;;7.60;94.60;;;;;;5031160;28;20037;-87
2022/03/20 00:46:09;;;;;;;11.55;4.43;;;7.60;94.60;;;;;;5030946;28;20582;-87
2022/03/20 00:48:34;;;;;;;9.70;4.68;;;7.60;94.50;;;;;;5031142;28;20564;-87
2022/03/20 00:51:03;;;;;;;12.45;5.22;;;7.60;94.50;;;;;;5030220;28;20053;-87
2022/03/20 00:53:30;;;;;;;12.30;4.95;;;7.60;94.60;;;;;;5030976;28;20045;-87
2022/03/20 00:55:56;;;;;;;11.77;5.13;;;7.60;94.50;;;;;;5014222;28;20046;-87
2022/03/20 00:58:22;;;;;;;11.30;4.97;;;7.50;94.60;;;;;;5030660;28;20092;-87
2022/03/20 01:00:47;;;;;;;11.10;5.53;;;7.50;94.70;;;;;;5030453;28;20507;-87
2022/03/20 01:03:13;;;;;;;12.38;5.47;;;7.50;94.60;;;;;;5031008;28;20130;-87
2022/03/20 01:05:38;;;;;;;11.18;5.32;;;7.50;94.60;;;;;;5030871;28;20458;-87
2022/03/20 01:08:04;;;;;;;11.43;5.82;;;7.50;94.60;;;;;;5030663;28;20500;-87
2022/03/20 01:10:30;;;;;;;11.05;5.20;;;7.40;94.50;;;;;;5030359;28;20395;-86
2022/03/20 01:12:56;;;;;;;12.98;6.53;;;7.40;94.40;;;;;;5030711;28;20037;-86
2022/03/20 01:15:21;;;;;;;11.70;5.90;;;7.40;94.50;;;;;;5030587;28;20124;-86
2022/03/20 01:17:47;;;;;;;14.52;6.22;;;7.40;94.40;;;;;;5030491;28;20034;-86
2022/03/20 01:20:12;;;;;;;11.57;5.57;;;7.40;94.50;;;;;;5030161;28;20033;-87
2022/03/20 01:22:39;;;;;;;13.45;6.65;;;7.40;94.40;;;;;;5030449;28;20465;-87
2022/03/20 01:25:06;;;;;;;12.48;6.22;;;7.30;94.30;;;;;;5030504;28;20045;-87
2022/03/20 01:27:32;;;;;;;14.70;7.03;;;7.30;94.20;;;;;;5013676;28;20676;-86
2022/03/20 01:29:58;;;;;;;14.05;6.95;;;7.40;94.00;;;;;;5030154;28;20041;-87
2022/03/20 01:32:26;;;;;;;12.63;6.30;;;7.30;93.90;;;;;;5030651;28;20044;-86
2022/03/20 01:34:52;;;;;;;12.65;6.32;;;7.30;93.80;;;;;;5030323;28;20080;-86
2022/03/20 01:37:18;;;;;;;14.65;6.53;;;7.30;93.80;;;;;;5030344;28;20042;-87
2022/03/20 01:39:45;;;;;;;11.57;6.55;;;7.30;93.80;;;;;;5029949;28;20037;-87
2022/03/20 01:42:11;;;;;;;12.93;7.18;;;7.20;93.50;;;;;;5030145;28;20044;-86
2022/03/20 01:44:37;;;;;;;14.07;6.57;;;7.20;93.60;;;;;;5031295;28;20045;-86
2022/03/20 01:47:05;;;;;;;15.18;7.28;;;7.10;93.60;;;;;;5034293;28;20034;-86
2022/03/20 01:49:31;;;;;;;14.15;7.32;;;7.10;93.60;;;;;;5033906;28;20088;-86
2022/03/20 01:52:23;;;;;;;15.55;7.63;;;7.20;93.60;;;;;;5017526;28;20084;-87
2022/03/20 01:54:49;;;;;;;12.63;7.18;;;7.20;93.50;;;;;;5018050;28;20037;-87
2022/03/20 01:57:16;;;;;;;15.25;7.30;;;7.10;93.50;;;;;;5034364;28;20449;-86
2022/03/20 01:59:43;;;;;;;15.32;7.50;;;7.10;93.70;;;;;;5017289;28;20525;-87
2022/03/20 02:02:08;;;;;;;15.60;6.88;;;7.10;93.80;;;;;;5034277;28;20090;-86
2022/03/20 02:04:35;;;;;;;13.75;7.65;;;7.10;93.90;;;;;;5034075;28;20445;-86
2022/03/20 02:07:02;;;;;;;16.13;7.30;;;7.10;94.10;;;;;;5017559;28;20045;-86
2022/03/20 02:09:27;;;;;;;16.45;7.05;;;7.00;93.90;;;;;;5033702;28;20042;-86
2022/03/20 02:11:55;;;;;;;12.95;6.60;;;6.90;94.00;;;;;;5017245;28;20091;-86
2022/03/20 02:14:21;;;;;;;14.73;7.93;;;6.90;94.30;;;;;;5034085;28;20516;-86
2022/03/20 02:16:47;;;;;;;13.13;7.00;;;6.80;94.20;;;;;;5033804;28;20045;-86
2022/03/20 02:19:14;;;;;;;16.35;7.15;;;6.80;94.50;;;;;;5033541;28;20083;-86
2022/03/20 02:21:48;;;;;;;11.18;6.47;;;6.70;94.50;;;;;;5033318;28;20128;-86
2022/03/20 02:24:44;;;;;;;14.85;7.10;;;6.70;94.50;;;;;;5033675;28;20087;-87
2022/03/20 02:27:17;;;;;;;17.77;6.82;;;6.60;94.80;;;;;;5017596;28;20124;-86
2022/03/20 02:29:46;;;;;;;13.35;7.35;;;6.60;94.70;;;;;;5032827;28;20049;-86
2022/03/20 02:32:13;;;;;;;14.63;7.22;;;6.60;94.60;;;;;;5033452;28;20067;-86
2022/03/20 02:34:40;;;;;;;14.57;7.15;;;6.60;94.60;;;;;;5033592;28;20111;-86
2022/03/20 02:37:06;;;;;;;12.55;7.03;;;6.50;94.70;;;;;;5033357;28;20041;-86
2022/03/20 02:39:32;;;;;;;13.57;7.32;;;6.50;94.80;;;;;;5033153;28;20129;-86
2022/03/20 02:42:06;;;;;;;16.42;7.43;;;6.50;94.80;;;;;;5033264;28;20073;-87
2022/03/20 02:45:00;;;;;;;13.30;7.35;;;6.50;94.70;;;;;;5033677;28;20053;-86
2022/03/20 02:47:39;;;;;;;16.00;7.43;;;6.50;94.90;;;;;;5016824;28;20049;-86
2022/03/20 02:50:09;;;;;;;15.82;7.60;;;6.40;95.00;;;;;;5032712;28;20037;-86
2022/03/20 02:52:52;;;;;;;16.58;7.40;;;6.40;95.00;;;;;;5033117;28;20041;-86
2022/03/20 02:55:21;;;;;;;;;;;6.30;95.10;;;;;;5033155;28;20128;-86
2022/03/20 02:57:48;;;;;;;14.00;7.15;;;6.30;95.70;;;;;;5032918;28;19925;-86
2022/03/20 03:00:17;;;;;;;12.05;6.90;;;6.30;94.70;;;;;;5032853;28;20033;-87
2022/03/20 03:02:45;;;;;;;13.63;6.68;;;6.30;94.90;;;;;;5033095;28;20048;-86
2022/03/20 03:05:18;;;;;;;12.88;6.45;;;6.30;94.90;;;;;;5032906;28;20037;-86
2022/03/20 03:13:16;;;;;;;14.43;6.95;;;6.30;94.90;;;;;;5032789;28;20050;-86
2022/03/20 03:15:42;;;;;;;15.88;8.57;;;6.20;94.90;;;;;;5016227;28;20037;-86
2022/03/20 03:18:08;;;;;;;15.00;7.60;;;6.20;95.00;;;;;;5032883;28;20049;-86
2022/03/20 03:20:34;;;;;;;14.70;8.10;;;6.10;95.00;;;;;;5032210;28;20029;-86
2022/03/20 03:23:00;;;;;;;14.07;7.53;;;6.10;94.90;;;;;;5039080;28;20498;-86
2022/03/20 03:25:26;;;;;;;15.88;8.48;;;6.10;95.20;;;;;;5018653;28;20415;-86
2022/03/20 03:27:53;;;;;;;19.17;8.80;;;6.10;95.10;;;;;;5033935;28;20041;-86
2022/03/20 03:30:18;;;;;;;16.05;8.63;;;6.00;95.10;;;;;;5017053;28;20533;-86
2022/03/20 03:32:45;;;;;;;18.20;8.07;;;6.10;95.10;;;;;;5033317;28;20072;-86
2022/03/20 03:37:57;;;;;;;14.75;8.05;;;6.00;95.00;;;;;;5032344;28;20581;-86
2022/03/20 03:40:23;;;;;;;14.50;8.00;;;6.00;95.00;;;;;;5032469;28;20045;-87
2022/03/20 03:42:48;;;;;;;16.85;8.63;;;6.00;95.00;;;;;;5027772;28;20494;-86
2022/03/20 03:45:14;;;;;;;15.75;8.48;;;5.90;95.00;;;;;;5015336;28;20048;-86
2022/03/20 03:47:40;;;;;;;19.70;7.97;;;5.90;95.10;;;;;;5032211;28;20045;-86
2022/03/20 03:50:07;;;;;;;15.93;8.35;;;5.90;95.00;;;;;;5015094;28;20048;-86
2022/03/20 03:52:33;;;;;;;17.35;8.85;;;5.90;95.00;;;;;;5015403;28;20392;-87
2022/03/20 03:54:58;;;;;;;19.52;9.25;;;5.90;95.10;;;;;;5031887;28;20043;-86
2022/03/20 03:57:24;;;;;;;17.40;9.05;;;5.90;94.90;;;;;;5015244;28;20048;-86
2022/03/20 03:59:49;;;;;;;17.25;8.63;;;5.90;94.90;;;;;;5031774;28;20120;-87
2022/03/20 04:02:15;;;;;;;18.75;9.55;;;5.80;94.90;;;;;;5031771;28;20556;-86
2022/03/20 04:04:45;;;;;;;16.85;9.18;;;5.80;94.90;;;;;;5032098;28;20033;-86
2022/03/20 04:07:12;;;;;;;16.17;8.75;;;5.80;94.90;;;;;;5030656;28;20045;-86
2022/03/20 04:09:38;;;;;;;18.27;9.30;;;5.80;94.80;;;;;;5031711;28;20434;-86
2022/03/20 04:12:04;;;;;;;18.10;9.65;;;5.70;95.00;;;;;;5031750;28;20037;-86
2022/03/20 04:14:31;;;;;;;16.30;9.27;;;5.70;94.80;;;;;;5031641;28;20041;-86
2022/03/20 04:16:56;;;;;;;16.55;9.45;;;5.70;94.70;;;;;;5031284;28;20049;-86
2022/03/20 04:19:22;;;;;;;16.40;9.38;;;5.70;94.60;;;;;;5031553;28;20030;-86
2022/03/20 04:21:50;;;;;;;17.40;10.23;;;5.70;94.70;;;;;;5031027;28;20034;-86
2022/03/20 04:24:16;;;;;;;18.48;10.27;;;5.70;94.60;;;;;;5031483;28;20087;-86
2022/03/20 04:26:42;;;;;;;16.80;10.15;;;5.70;94.50;;;;;;5031455;28;20041;-87
2022/03/20 04:29:08;;;;;;;18.08;9.75;;;5.70;94.40;;;;;;5015084;28;20045;-87
2022/03/20 04:31:33;;;;;;;16.88;10.13;;;5.70;94.30;;;;;;5031209;28;20037;-86
2022/03/20 04:33:59;;;;;;;17.27;10.75;;;5.70;94.30;;;;;;5031134;28;20391;-87
2022/03/20 04:36:27;;;;;;;17.08;9.85;;;5.70;94.10;;;;;;5031237;28;20045;-86
2022/03/20 04:38:55;;;;;;;18.10;10.88;;;5.60;93.90;;;;;;5031142;28;20052;-87
2022/03/20 04:41:21;;;;;;;18.73;10.43;;;5.60;93.90;;;;;;5030804;28;20544;-87
2022/03/20 04:43:48;;;;;;;18.67;10.27;;;5.60;93.80;;;;;;5031172;28;20033;-87
2022/03/20 04:46:14;;;;;;;18.75;10.93;;;5.60;93.80;;;;;;5031050;28;20038;-87
2022/03/20 04:59:38;;;;;;;21.85;10.48;;;5.50;93.30;;;;;;5030444;28;20041;-87
2022/03/20 05:02:03;;;;;;;19.35;10.80;;;5.50;93.20;;;;;;5030701;28;20037;-86
2022/03/20 05:04:29;;;;;;;18.75;10.55;;;5.50;93.10;;;;;;5030778;28;20033;-87
2022/03/20 05:06:55;;;;;;;18.63;10.63;;;5.50;92.90;;;;;;5030595;28;20060;-87
2022/03/20 05:14:49;;;;;;;23.63;11.48;;;5.40;92.50;;;;;;5030447;28;20132;-86
2022/03/20 05:17:14;;;;;;;19.67;11.70;;;5.40;92.40;;;;;;5030338;28;20109;-86
2022/03/20 05:19:40;;;;;;;18.58;11.32;;;5.40;92.30;;;;;;5030033;28;20030;-86
2022/03/20 05:22:11;;;;;;;19.70;11.88;;;5.40;92.30;;;;;;5030617;28;20044;-87
2022/03/20 05:24:38;;;;;;;21.90;11.57;;;5.40;92.20;;;;;;5030651;28;20072;-87
2022/03/20 05:27:05;;;;;;;18.35;11.82;;;5.40;92.40;;;;;;5030267;28;20124;-86
2022/03/20 05:29:31;;;;;;;18.77;11.15;;;5.30;92.00;;;;;;5013844;28;20124;-87
2022/03/20 05:31:56;;;;;;;18.25;11.30;;;5.30;92.00;;;;;;5030303;28;20045;-87
2022/03/20 05:34:23;;;;;;;18.38;11.13;;;5.30;91.90;;;;;;5014275;28;20099;-87
2022/03/20 05:36:49;;;;;;;20.25;11.00;;;5.30;92.00;;;;;;5029730;28;20041;-87
2022/03/20 05:39:15;;;;;;;21.73;11.77;;;5.30;92.00;;;;;;5030564;28;20045;-86
2022/03/20 05:41:48;;;;;;;16.45;10.75;;;5.30;91.80;;;;;;5030190;28;20029;-87
2022/03/20 05:44:16;;;;;;;17.20;11.15;;;5.30;91.80;;;;;;5030204;28;20044;-87
2022/03/20 05:46:43;;;;;;;18.05;11.40;;;5.30;91.80;;;;;;5030261;28;20094;-86
2022/03/20 05:49:08;;;;;;;19.73;11.90;;;5.30;91.60;;;;;;5030561;28;20059;-87
2022/03/20 05:51:34;;;;;;;18.67;11.40;;;5.20;91.50;;;;;;5029852;28;20752;-86
2022/03/20 05:54:00;;;;;;;19.65;11.57;;;5.20;91.30;;;;;;5030311;28;20120;-87
2022/03/20 05:59:10;;;;;;;19.85;11.77;;;5.20;91.40;;;;;;5029963;28;20049;-87
2022/03/20 06:01:36;;;;;;;19.85;12.07;;;5.20;91.20;;;;;;5030140;28;20443;-87
2022/03/20 06:04:03;;;;;;;19.83;11.98;;;5.20;91.20;;;;;;5030148;28;20570;-87
2022/03/20 06:06:29;;;;;;;22.40;12.93;;;5.20;91.00;;;;;;5030211;28;20045;-87
2022/03/20 06:08:55;;;;;;;20.02;12.30;;;5.20;91.00;;;;;;5030351;28;20037;-87
2022/03/20 06:11:21;;;;;;;19.27;10.88;;;5.10;90.90;;;;;;5029809;28;20534;-87
2022/03/20 06:13:48;;;;;;;19.05;12.50;;;5.20;91.00;;;;;;5013973;28;20517;-87
2022/03/20 06:16:15;;;;;;;20.75;12.68;;;5.20;90.90;;;;;;5029955;28;20037;-87
2022/03/20 06:18:42;;;;;;;20.45;12.07;;;5.20;90.80;;;;;;5013549;28;20048;-87
2022/03/20 06:21:09;;;;;;;20.73;12.07;;;5.20;90.70;;;;;;5029494;28;20095;-87
2022/03/20 06:23:35;;;;;;;19.45;12.30;;;5.20;90.70;;;;;;5030363;28;20048;-87
2022/03/20 06:26:01;;;;;;;19.27;12.07;;;5.20;90.60;;;;;;5029983;28;20069;-87
2022/03/20 06:28:27;;;;;;;19.63;12.10;;;5.20;90.50;;;;;;5030108;28;20073;-87
2022/03/20 06:30:53;;;;;;;19.27;11.68;;;5.20;90.60;;;;;;5031139;28;20053;-87
2022/03/20 06:33:19;;;;;;;20.45;12.63;;;5.30;90.50;;;;;;5017167;28;20042;-87
2022/03/20 06:35:44;;;;;;;18.92;12.00;;;5.30;90.40;;;;;;5033568;28;20049;-87
2022/03/20 06:38:10;;;;;;;22.67;12.85;;;5.40;90.30;;;;;;5013626;28;20052;-87
2022/03/20 06:40:36;;;;;;;18.48;11.88;;;5.40;90.10;;;;;;5016263;28;20072;-86
2022/03/20 06:43:01;;;;;;;19.65;11.65;;;5.40;90.00;;;;;;5033228;28;20037;-86
2022/03/20 06:45:27;;;;;;;18.23;11.93;;;5.40;89.60;;;;;;5016621;28;20144;-86
2022/03/20 06:47:52;;;;;;;19.70;13.13;;;5.40;89.20;;;;;;5016470;28;20092;-86
2022/03/20 06:50:18;;;;;;;21.67;12.52;;;5.40;89.20;;;;;;5032226;28;20045;-86
2022/03/20 06:52:44;;;;;;;21.60;12.15;;;5.40;89.00;;;;;;5032956;28;20049;-87
2022/03/20 06:55:12;;;;;;;22.05;12.85;;;5.50;88.90;;;;;;5032675;28;20041;-86
2022/03/20 06:57:42;;;;;;;20.00;12.80;;;5.50;88.70;;;;;;5032734;28;20041;-86
2022/03/20 07:00:09;;;;;;;21.60;13.07;;;5.60;88.60;;;;;;5032395;28;20038;-87
2022/03/20 07:02:34;;;;;;;19.45;12.55;;;5.60;88.40;;;;;;5032706;28;20029;-86
2022/03/20 07:05:00;;;;;;;18.23;12.40;;;5.70;88.20;;;;;;5032945;28;20044;-87
2022/03/20 07:07:27;;;;;;;21.95;13.18;;;5.70;87.90;;;;;;5016450;28;20388;-86
2022/03/20 07:09:52;;;;;;;21.73;13.27;;;5.80;87.50;;;;;;5033081;28;20090;-87
2022/03/20 07:12:18;;;;;;;20.38;12.73;;;5.80;87.20;;;;;;5016111;28;20037;-86
2022/03/20 07:14:45;;;;;;;19.23;12.10;;;5.90;86.70;;;;;;5034011;28;20045;-86
2022/03/20 07:17:16;;;;;;;20.83;12.20;;;6.00;86.20;;;;;;5016158;28;20041;-87
2022/03/20 07:19:43;;;;;;;23.13;13.15;;;6.00;84.90;;;;;;5032374;28;20399;-86
2022/03/20 07:22:09;;;;;;;20.25;12.35;;;6.00;85.20;;;;;;5032407;28;20046;-86
2022/03/20 07:24:41;;;;;;;20.50;12.57;;;6.10;85.20;;;;;;5032462;28;20064;-87
2022/03/20 07:29:51;;;;;;;35.00;13.75;;;6.10;84.50;;;;;;5031736;28;20518;-87
2022/03/20 07:32:17;;;;;;;20.92;12.35;;;6.10;83.70;;;;;;5032601;28;20053;-87
2022/03/20 07:34:45;;;;;;;21.48;13.57;;;6.10;83.60;;;;;;5015794;28;20033;-86
2022/03/20 07:37:15;;;;;;;20.67;13.43;;;6.20;83.40;;;;;;5031974;28;20037;-86
2022/03/20 07:39:43;;;;;;;21.75;13.50;;;6.20;83.10;;;;;;5032276;28;20129;-87
2022/03/20 07:42:08;;;;;;;20.65;13.43;;;6.30;83.00;;;;;;5032031;28;20048;-87
2022/03/20 07:44:36;;;;;;;21.95;14.73;;;6.30;82.70;;;;;;5015905;28;20033;-87
2022/03/20 07:47:03;;;;;;;21.67;13.43;;;6.40;82.20;;;;;;5033327;28;20554;-87
2022/03/20 07:49:29;;;;;;;22.52;14.20;;;6.50;81.50;;;;;;5031586;28;20060;-87
2022/03/20 07:51:57;;;;;;;20.27;13.75;;;6.50;80.90;;;;;;5031656;28;20037;-87
2022/03/20 07:54:27;;;;;;;21.83;13.63;;;6.50;80.00;;;;;;5032112;28;20379;-87
2022/03/20 07:56:52;;;;;;;23.55;13.48;;;6.60;80.00;;;;;;5032166;28;20437;-87
2022/03/20 07:59:18;;;;;;;20.95;12.93;;;6.60;80.10;;;;;;5031745;28;20037;-87
2022/03/20 08:01:43;;;;;;;22.60;14.35;;;6.80;79.00;;;;;;5031376;28;20061;-86
2022/03/20 08:04:09;;;;;;;19.23;12.90;;;6.80;78.00;;;;;;5031971;28;20045;-86
2022/03/20 08:06:35;;;;;;;21.95;14.10;;;6.90;77.60;;;;;;5031848;28;20037;-87
2022/03/20 08:09:00;;;;;;;21.27;14.25;;;7.00;76.30;;;;;;5015126;28;20407;-86
2022/03/20 08:11:27;;;;;;;20.35;14.15;;;7.00;76.00;;;;;;5030748;28;20048;-86
2022/03/20 08:13:53;;;;;;;22.63;14.43;;;7.10;76.00;;;;;;5030481;28;20048;-87
2022/03/20 08:16:20;;;;;;;20.08;13.68;;;7.20;75.60;;;;;;5031095;28;20037;-87
2022/03/20 08:18:46;;;;;;;24.35;14.38;;;7.30;74.40;;;;;;5030952;28;20060;-87
2022/03/20 08:21:12;;;;;;;20.52;13.35;;;7.40;74.70;;;;;;5031234;28;20399;-87
2022/03/20 08:23:39;;;;;;;22.50;14.43;;;7.40;74.30;;;;;;5031630;28;20033;-87
2022/03/20 08:26:08;;;;;;;20.23;14.02;;;7.40;73.60;;;;;;5031426;28;20048;-86
2022/03/20 08:28:35;;;;;;;24.15;13.80;;;7.50;73.20;;;;;;5014889;28;20044;-86
2022/03/20 08:31:00;;;;;;;21.42;14.73;;;7.60;72.70;;;;;;5030677;28;20089;-87
2022/03/20 08:33:27;;;;;;;22.52;14.52;;;7.70;72.60;;;;;;5031462;28;20560;-87
2022/03/20 08:35:52;;;;;;;23.70;15.13;;;7.70;72.30;;;;;;5031163;28;20077;-87
2022/03/20 08:38:19;;;;;;;23.52;15.63;;;7.80;72.30;;;;;;5031956;28;20422;-87
2022/03/20 08:40:44;;;;;;;21.27;14.82;;;7.80;71.10;;;;;;5059995;28;20132;-87
2022/03/20 08:43:15;;;;;;;24.33;15.88;;;7.80;70.30;;;;;;5053764;28;20041;-87
2022/03/20 08:45:41;;;;;;;22.65;15.27;;;7.80;69.80;;;;;;5053280;28;20041;-87
2022/03/20 08:48:07;;;;;;;23.55;15.63;;;7.80;69.00;;;;;;5051844;28;20131;-88
2022/03/20 08:50:33;;;;;;;23.02;14.75;;;7.80;68.80;;;;;;5050537;28;20071;-87
2022/03/20 08:53:00;;;;;;;24.17;15.98;;;7.80;68.80;;;;;;5050516;28;20053;-88
2022/03/20 08:55:25;;;;;;;24.38;17.30;;;7.90;68.20;;;;;;5050810;28;20536;-88
2022/03/20 08:57:52;;;;;;;26.75;16.65;;;7.90;67.40;;;;;;5050505;28;20041;-88
2022/03/20 09:00:20;;;;;;;24.30;15.50;;;8.00;67.30;;;;;;5050104;28;20524;-86
2022/03/20 09:02:47;;;;;;;24.50;15.30;;;8.00;67.20;;;;;;5050523;28;20047;-87
2022/03/20 09:05:13;;;;;;;22.42;16.20;;;8.10;66.80;;;;;;5029282;28;20041;-87
2022/03/20 09:07:42;;;;;;;22.90;16.58;;;8.10;66.80;;;;;;5014161;28;20045;-87
2022/03/20 09:10:09;;;;;;;25.58;16.23;;;8.20;66.40;;;;;;5030059;28;20052;-87
2022/03/20 09:12:37;;;;;;;25.80;17.23;;;8.30;65.80;;;;;;5031236;28;20044;-87
2022/03/20 09:15:05;;;;;;;27.33;16.27;;;8.30;65.10;;;;;;5030127;28;20067;-87
2022/03/20 09:20:16;;;;;;;24.70;17.65;;;8.50;64.90;;;;;;5030059;28;20355;-88
2022/03/20 09:22:42;;;;;;;24.27;16.67;;;8.50;64.10;;;;;;5013826;28;20549;-88
2022/03/20 09:25:08;;;;;;;21.77;16.80;;;8.60;63.90;;;;;;5030199;28;20041;-88
2022/03/20 09:27:35;;;;;;;24.92;16.67;;;8.60;63.60;;;;;;5030435;28;20411;-88
2022/03/20 09:30:01;;;;;;;23.73;17.30;;;8.80;63.80;;;;;;5013520;28;20375;-88
2022/03/20 09:32:26;;;;;;;27.13;18.08;;;8.80;63.60;;;;;;5013767;28;20042;-88
2022/03/20 09:34:52;;;;;;;24.08;16.92;;;8.90;62.70;;;;;;5030124;28;20421;-88
2022/03/20 09:37:18;;;;;;;25.08;17.00;;;9.00;62.40;;;;;;5030465;28;20052;-88
2022/03/20 09:39:43;;;;;;;26.48;17.23;;;9.00;62.70;;;;;;5029874;28;20679;-88
2022/03/20 09:42:09;;;;;;;25.40;17.42;;;9.10;62.70;;;;;;5030487;28;20597;-88
2022/03/20 09:44:38;;;;;;;26.90;17.73;;;9.20;62.30;;;;;;5013742;28;20402;-88
2022/03/20 09:47:09;;;;;;;25.25;16.65;;;9.30;61.10;;;;;;5030039;28;20553;-88
2022/03/20 09:49:36;;;;;;;23.70;17.13;;;9.30;61.40;;;;;;5027342;28;20038;-87
2022/03/20 09:52:06;;;;;;;24.23;17.67;;;9.40;60.90;;;;;;5024255;28;20406;-87
2022/03/20 09:54:33;;;;;;;23.77;17.80;;;9.50;61.00;;;;;;5025995;28;20103;-88
2022/03/20 09:57:03;;;;;;;27.95;19.50;;;9.60;61.00;;;;;;5009811;28;20045;-88
2022/03/20 09:59:29;;;;;;;24.15;17.50;;;9.70;60.80;;;;;;5009272;28;20046;-88
2022/03/20 10:02:00;;;;;;;24.33;17.55;;;9.80;60.60;;;;;;5042530;28;20037;-87
2022/03/20 10:04:26;;;;;;;25.55;18.27;;;9.90;60.10;;;;;;5032764;28;20072;-88
2022/03/20 10:06:51;;;;;;;23.80;18.10;;;10.00;59.80;;;;;;5035435;28;20111;-87
2022/03/20 10:09:17;;;;;;;26.02;18.75;;;10.00;60.00;;;;;;5044073;28;20052;-88
2022/03/20 10:11:54;;;;;;;24.23;18.48;;;10.20;59.70;;;;;;5016335;28;20526;-88
2022/03/20 10:14:21;;;;;;;27.27;19.30;;;10.20;58.70;;;;;;5016835;28;20501;-87
2022/03/20 10:17:06;;;;;;;24.85;18.48;;;10.30;58.40;;;;;;5033228;28;20043;-88
2022/03/20 10:19:32;;;;;;;27.08;19.58;;;10.40;58.20;;;;;;5033563;28;20136;-88
2022/03/20 10:22:09;;;;;;;25.30;18.48;;;10.50;57.70;;;;;;5033470;28;20037;-88
2022/03/20 10:24:38;;;;;;;26.35;19.25;;;10.50;57.30;;;;;;5031875;28;20037;-87
2022/03/20 10:27:04;;;;;;;25.35;18.58;;;10.60;57.50;;;;;;5032283;28;20033;-87
2022/03/20 10:29:31;;;;;;;26.38;18.77;;;10.70;57.40;;;;;;5016496;28;20037;-87
2022/03/20 10:32:01;;;;;;;25.77;19.40;;;10.80;57.10;;;;;;5033102;28;20041;-87
2022/03/20 10:34:27;;;;;;;24.92;19.80;;;10.90;57.00;;;;;;5033771;28;20029;-87
2022/03/20 10:36:53;;;;;;;27.48;19.33;;;11.00;57.00;;;;;;5028588;28;20044;-87
2022/03/20 10:39:21;;;;;;;23.55;18.60;;;11.10;56.30;;;;;;5016824;28;20029;-87
2022/03/20 10:41:48;;;;;;;26.38;18.73;;;11.30;56.50;;;;;;5032134;28;20466;-87
2022/03/20 10:44:25;;;;;;;25.73;20.33;;;11.40;56.20;;;;;;5032164;28;20045;-87
2022/03/20 10:46:59;;;;;;;25.65;19.52;;;11.50;56.60;;;;;;5033391;28;20390;-87
2022/03/20 10:49:25;;;;;;;26.90;20.30;;;11.70;55.00;;;;;;5032821;28;20496;-87
2022/03/20 10:52:06;;;;;;;27.25;20.90;;;11.70;54.80;;;;;;5032523;28;20383;-87
2022/03/20 10:54:58;;;;;;;25.30;20.13;;;11.80;54.00;;;;;;5032922;28;20046;-87
2022/03/20 10:57:32;;;;;;;26.88;18.52;;;11.90;53.10;;;;;;5031105;28;20060;-87
2022/03/20 11:00:11;;;;;;;26.02;19.05;;;12.10;54.20;;;;;;5016075;28;20037;-87
2022/03/20 11:02:39;;;;;;;25.50;20.52;;;12.10;54.00;;;;;;5033052;28;20073;-87
2022/03/20 11:05:06;;;;;;;25.15;20.52;;;12.20;53.10;;;;;;5032811;28;20099;-87
2022/03/20 11:07:31;;;;;;;24.48;20.10;;;12.20;52.70;;;;;;5032864;28;20403;-87
2022/03/20 11:09:57;;;;;;;25.05;20.88;;;12.30;52.50;;;;;;5015767;28;20038;-87
2022/03/20 11:12:27;;;;;;;26.00;20.88;;;12.30;52.40;;;;;;5032449;28;20038;-87
2022/03/20 11:14:57;;;;;;;25.83;20.23;;;12.40;52.20;;;;;;5016123;28;20037;-86
2022/03/20 11:17:27;;;;;;;25.88;19.90;;;12.40;51.90;;;;;;5032367;28;20435;-87
2022/03/20 11:19:54;;;;;;;26.58;20.13;;;12.60;52.10;;;;;;5032088;28;20048;-87
2022/03/20 11:22:21;;;;;;;25.45;19.80;;;12.70;51.90;;;;;;5032381;28;20038;-86
2022/03/20 11:24:49;;;;;;;24.92;19.50;;;12.80;52.20;;;;;;5032628;28;20076;-86
2022/03/20 11:27:22;;;;;;;23.17;17.77;;;13.00;51.80;;;;;;5032287;28;20120;-87
2022/03/20 11:29:50;;;;;;;24.90;19.48;;;13.20;51.90;;;;;;5031823;28;20045;-87
2022/03/20 11:32:18;;;;;;;22.42;19.50;;;13.40;52.10;;;;;;5031838;28;20046;-86
2022/03/20 11:34:48;;;;;;;23.77;19.95;;;13.70;51.60;;;;;;5033426;28;20049;-87
2022/03/20 11:37:15;;;;;;;23.80;20.15;;;13.80;49.80;;;;;;5031711;28;20502;-86
2022/03/20 11:40:07;;;;;;;25.75;21.23;;;13.90;49.70;;;;;;5014704;28;20171;-87
2022/03/20 11:42:33;;;;;;;25.13;20.40;;;14.10;48.90;;;;;;5032276;28;20076;-87
2022/03/20 11:45:02;;;;;;;24.45;20.35;;;14.10;48.80;;;;;;5031988;28;20076;-86
2022/03/20 11:47:29;;;;;;;24.33;21.38;;;14.20;48.40;;;;;;5032105;28;20038;-87
2022/03/20 11:50:25;;;;;;;23.23;20.67;;;14.30;48.10;;;;;;5015054;28;20046;-86
2022/03/20 11:53:00;;;;;;;25.05;22.10;;;14.40;47.60;;;;;;5030952;28;20426;-87
2022/03/20 11:55:27;;;;;;;25.00;21.58;;;14.50;47.40;;;;;;5032323;28;20044;-87
2022/03/20 11:57:53;;;;;;;24.10;20.92;;;14.40;47.00;;;;;;5031727;28;20045;-87
2022/03/20 12:00:42;;;;;;;26.55;20.95;;;14.50;47.20;;;;;;5015050;28;20490;-87
2022/03/20 12:03:13;;;;;;;23.83;20.95;;;14.50;46.90;;;;;;5031804;28;20041;-87
2022/03/20 12:05:42;;;;;;;27.13;20.90;;;14.60;47.50;;;;;;5031511;28;20037;-88
2022/03/20 12:08:40;;;;;;;25.45;22.70;;;14.70;47.30;;;;;;5031742;28;20045;-88
2022/03/20 12:11:28;;;;;;;24.50;21.63;;;14.80;46.10;;;;;;5031410;28;20037;-88
2022/03/20 12:13:57;;;;;;;25.27;22.58;;;14.90;46.30;;;;;;5015070;28;20049;-88
2022/03/20 12:16:45;;;;;;;25.20;21.27;;;14.90;46.40;;;;;;5031486;28;20561;-88
2022/03/20 12:19:15;;;;;;;25.17;22.27;;;14.80;45.70;;;;;;5030978;28;20045;-88
2022/03/20 12:22:00;;;;;;;24.63;21.67;;;14.60;45.90;;;;;;5030895;28;20498;-88
2022/03/20 12:24:38;;;;;;;26.92;22.42;;;14.50;45.40;;;;;;5031222;28;20669;-88
2022/03/20 12:27:22;;;;;;;25.83;22.23;;;14.30;46.10;;;;;;5031485;28;20131;-88
2022/03/20 12:30:09;;;;;;;26.45;22.25;;;14.20;46.60;;;;;;5030229;28;20041;-88
2022/03/20 12:32:46;;;;;;;25.65;22.08;;;14.20;46.90;;;;;;5014674;28;20045;-88
2022/03/20 12:35:12;;;;;;;28.70;23.35;;;14.20;46.40;;;;;;5031109;28;20041;-87
2022/03/20 12:37:40;;;;;;;25.25;21.98;;;14.20;46.80;;;;;;5030650;28;20102;-88
2022/03/20 12:40:16;;;;;;;26.67;21.15;;;14.30;47.10;;;;;;5030633;28;20037;-88
2022/03/20 12:42:53;;;;;;;24.77;22.00;;;14.50;46.70;;;;;;5030988;28;20124;-88
2022/03/20 12:45:19;;;;;;;25.02;21.85;;;14.50;46.30;;;;;;5014785;28;20053;-88
2022/03/20 12:48:13;;;;;;;25.88;21.63;;;14.30;46.60;;;;;;5031063;28;20042;-88
2022/03/20 12:50:41;;;;;;;25.83;22.10;;;14.10;46.30;;;;;;5029125;28;20530;-87
2022/03/20 12:53:17;;;;;;;25.35;22.35;;;13.90;47.30;;;;;;5030895;28;20048;-88
2022/03/20 12:55:54;;;;;;;28.20;22.60;;;13.90;47.80;;;;;;5030885;28;20546;-88
2022/03/20 12:58:20;;;;;;;26.20;21.83;;;13.70;47.40;;;;;;5030400;28;20037;-88
2022/03/20 13:00:47;;;;;;;26.15;22.88;;;13.50;47.60;;;;;;5013963;28;20120;-88
2022/03/20 13:03:15;;;;;;;25.42;22.67;;;13.40;48.30;;;;;;5030971;28;20046;-88
2022/03/20 13:05:51;;;;;;;24.23;21.02;;;13.30;48.30;;;;;;5030560;28;20487;-88
2022/03/20 13:08:29;;;;;;;27.10;22.33;;;13.10;48.50;;;;;;5030606;28;20513;-88
2022/03/20 13:11:03;;;;;;;27.42;21.55;;;13.10;49.10;;;;;;5030211;28;20041;-88
2022/03/20 13:13:34;;;;;;;25.90;21.88;;;13.00;49.40;;;;;;5030257;28;20525;-88
2022/03/20 13:16:01;;;;;;;26.15;22.83;;;13.00;49.70;;;;;;5013758;28;20044;-88
2022/03/20 13:18:30;;;;;;;25.10;22.08;;;13.00;49.90;;;;;;5030038;28;20041;-88